Time,TemperatureF,DewpointF,PressureIn,WindDirection,WindDirectionDegrees,WindSpeedMPH,WindSpeedGustMPH,Humidity,HourlyPrecipIn,Conditions,Clouds,dailyrainin,SoftwareType,DateUTC
2013-02-28 00:03:00,34.3,34.0,29.59,West,276,0.0,0.0,98,0.01,,,0.00,weatherlink.com 1.10,2013-02-28 05:03:00,
2013-02-28 00:18:00,34.1,34.0,29.59,West,276,0.0,0.0,98,0.01,,,0.00,weatherlink.com 1.10,2013-02-28 05:18:00,
2013-02-28 00:33:00,34.3,34.0,29.59,NNW,345,0.0,0.0,99,0.00,,,0.00,weatherlink.com 1.10,2013-02-28 05:33:00,
2013-02-28 00:48:00,34.5,34.0,29.59,NNW,345,0.0,0.0,99,0.01,,,0.01,weatherlink.com 1.10,2013-02-28 05:48:00,
2013-02-28 01:03:00,34.4,34.0,29.59,NNW,345,0.0,0.0,99,0.01,,,0.01,weatherlink.com 1.10,2013-02-28 06:03:00,
2013-02-28 01:18:00,34.4,34.0,29.59,NNW,345,0.0,0.0,99,0.01,,,0.01,weatherlink.com 1.10,2013-02-28 06:18:00,
2013-02-28 01:33:00,34.4,34.0,29.59,NNW,347,0.0,0.0,99,0.02,,,0.02,weatherlink.com 1.10,2013-02-28 06:33:00,
2013-02-28 01:48:00,34.2,34.0,29.58,North,1,0.0,0.0,99,0.01,,,0.02,weatherlink.com 1.10,2013-02-28 06:48:00,
2013-02-28 02:03:00,34.0,34.0,29.58,North,1,0.0,0.0,99,0.01,,,0.02,weatherlink.com 1.10,2013-02-28 07:03:00,
2013-02-28 02:18:00,33.8,34.0,29.57,North,1,0.0,0.0,99,0.02,,,0.03,weatherlink.com 1.10,2013-02-28 07:18:00,
2013-02-28 02:33:00,33.7,34.0,29.57,North,1,0.0,0.0,99,0.01,,,0.03,weatherlink.com 1.10,2013-02-28 07:33:00,
2013-02-28 02:48:00,33.7,34.0,29.56,North,1,0.0,0.0,99,0.01,,,0.03,weatherlink.com 1.10,2013-02-28 07:48:00,
2013-02-28 03:03:00,33.4,33.0,29.56,North,1,0.0,0.0,99,0.01,,,0.03,weatherlink.com 1.10,2013-02-28 08:03:00,
2013-02-28 03:18:00,33.3,33.0,29.56,North,1,0.0,0.0,99,0.00,,,0.03,weatherlink.com 1.10,2013-02-28 08:18:00,
2013-02-28 03:33:00,33.3,33.0,29.56,North,1,0.0,0.0,99,0.00,,,0.03,weatherlink.com 1.10,2013-02-28 08:33:00,
2013-02-28 03:48:00,33.3,33.0,29.56,North,1,0.0,0.0,99,0.00,,,0.03,weatherlink.com 1.10,2013-02-28 08:48:00,
2013-02-28 04:03:00,33.3,33.0,29.56,North,1,0.0,0.0,99,0.00,,,0.03,weatherlink.com 1.10,2013-02-28 09:03:00,
2013-02-28 04:18:00,33.2,33.0,29.56,North,1,0.0,0.0,99,0.00,,,0.03,weatherlink.com 1.10,2013-02-28 09:18:00,
2013-02-28 04:33:00,33.3,33.0,29.57,North,1,0.0,0.0,99,0.00,,,0.03,weatherlink.com 1.10,2013-02-28 09:33:00,
2013-02-28 04:48:00,33.3,33.0,29.57,North,1,0.0,0.0,99,0.00,,,0.03,weatherlink.com 1.10,2013-02-28 09:48:00,
2013-02-28 05:03:00,33.2,33.0,29.57,North,1,0.0,0.0,99,0.01,,,0.04,weatherlink.com 1.10,2013-02-28 10:03:00,
2013-02-28 05:18:00,33.1,33.0,29.58,North,1,0.0,0.0,99,0.01,,,0.04,weatherlink.com 1.10,2013-02-28 10:18:00,
2013-02-28 05:33:00,33.2,33.0,29.58,North,1,0.0,0.0,99,0.01,,,0.04,weatherlink.com 1.10,2013-02-28 10:33:00,
2013-02-28 05:49:00,33.2,33.0,29.58,North,1,0.0,0.0,99,0.01,,,0.04,weatherlink.com 1.10,2013-02-28 10:49:00,
2013-02-28 06:03:00,33.3,33.0,29.58,North,1,0.0,0.0,99,0.00,,,0.04,weatherlink.com 1.10,2013-02-28 11:03:00,
2013-02-28 06:18:00,33.3,33.0,29.58,North,1,0.0,0.0,99,0.01,,,0.05,weatherlink.com 1.10,2013-02-28 11:18:00,
2013-02-28 06:33:00,33.3,33.0,29.58,North,1,0.0,0.0,99,0.01,,,0.05,weatherlink.com 1.10,2013-02-28 11:33:00,
2013-02-28 06:48:00,33.4,33.0,29.58,North,1,0.0,0.0,99,0.01,,,0.05,weatherlink.com 1.10,2013-02-28 11:48:00,
2013-02-28 07:03:00,33.6,33.0,29.58,North,1,0.0,0.0,99,0.01,,,0.06,weatherlink.com 1.10,2013-02-28 12:03:00,
2013-02-28 07:18:00,33.9,34.0,29.58,North,1,0.0,0.0,99,0.01,,,0.06,weatherlink.com 1.10,2013-02-28 12:18:00,
2013-02-28 07:33:00,34.4,34.0,29.58,North,1,0.0,0.0,99,0.01,,,0.06,weatherlink.com 1.10,2013-02-28 12:33:00,
2013-02-28 07:48:00,34.9,35.0,29.58,North,1,0.0,0.0,99,0.01,,,0.06,weatherlink.com 1.10,2013-02-28 12:48:00,
2013-02-28 08:03:00,35.7,36.0,29.59,North,1,0.0,0.0,99,0.01,,,0.07,weatherlink.com 1.10,2013-02-28 13:03:00,
2013-02-28 08:18:00,36.2,36.0,29.59,North,1,0.0,0.0,99,0.01,,,0.07,weatherlink.com 1.10,2013-02-28 13:18:00,
2013-02-28 08:33:00,36.7,37.0,29.59,North,1,0.0,0.0,99,0.01,,,0.07,weatherlink.com 1.10,2013-02-28 13:33:00,
2013-02-28 08:48:00,36.8,37.0,29.59,North,4,0.0,0.0,99,0.01,,,0.07,weatherlink.com 1.10,2013-02-28 13:48:00,
2013-02-28 09:03:00,37.3,37.0,29.59,WNW,297,0.0,0.0,99,0.00,,,0.07,weatherlink.com 1.10,2013-02-28 14:03:00,
2013-02-28 09:19:00,38.1,38.0,29.59,West,269,0.0,0.0,99,0.00,,,0.07,weatherlink.com 1.10,2013-02-28 14:19:00,
2013-02-28 09:34:00,39.1,39.0,29.59,WSW,248,0.0,1.0,99,0.01,,,0.08,weatherlink.com 1.10,2013-02-28 14:34:00,
2013-02-28 09:49:00,38.9,38.0,29.59,WNW,300,0.0,2.0,98,0.01,,,0.08,weatherlink.com 1.10,2013-02-28 14:49:00,
2013-02-28 10:04:00,39.0,39.0,29.59,West,268,0.0,1.0,98,0.01,,,0.08,weatherlink.com 1.10,2013-02-28 15:04:00,
2013-02-28 10:19:00,39.0,38.0,29.59,West,280,0.0,2.0,96,0.01,,,0.08,weatherlink.com 1.10,2013-02-28 15:19:00,
2013-02-28 10:34:00,39.3,38.0,29.59,West,259,0.0,2.0,95,0.00,,,0.08,weatherlink.com 1.10,2013-02-28 15:34:00,
2013-02-28 10:49:00,39.7,38.0,29.59,West,281,0.0,2.0,94,0.00,,,0.08,weatherlink.com 1.10,2013-02-28 15:49:00,
2013-02-28 11:04:00,40.2,38.0,29.59,WNW,285,0.0,0.0,92,0.00,,,0.08,weatherlink.com 1.10,2013-02-28 16:04:00,
2013-02-28 11:19:00,40.4,38.0,29.59,WNW,285,0.0,1.0,92,0.00,,,0.08,weatherlink.com 1.10,2013-02-28 16:19:00,
2013-02-28 11:34:00,40.0,38.0,29.58,West,271,0.0,2.0,91,0.00,,,0.08,weatherlink.com 1.10,2013-02-28 16:34:00,
2013-02-28 11:49:00,40.9,38.0,29.58,West,266,0.0,2.0,89,0.00,,,0.08,weatherlink.com 1.10,2013-02-28 16:49:00,
2013-02-28 12:05:00,41.6,38.0,29.58,WNW,284,0.0,2.0,87,0.00,,,0.08,weatherlink.com 1.10,2013-02-28 17:05:00,
2013-02-28 12:19:00,41.5,38.0,29.57,WNW,288,0.0,2.0,86,0.00,,,0.08,weatherlink.com 1.10,2013-02-28 17:19:00,
2013-02-28 12:34:00,42.3,38.0,29.56,West,269,3.0,4.0,84,0.00,,,0.08,weatherlink.com 1.10,2013-02-28 17:34:00,
2013-02-28 12:49:00,43.3,38.0,29.56,NNE,18,1.0,3.0,81,0.00,,,0.08,weatherlink.com 1.10,2013-02-28 17:49:00,
2013-02-28 13:04:00,42.9,37.0,29.55,NW,319,0.0,3.0,81,0.00,,,0.08,weatherlink.com 1.10,2013-02-28 18:04:00,
2013-02-28 13:19:00,43.7,38.0,29.55,ENE,60,1.0,2.0,79,0.00,,,0.08,weatherlink.com 1.10,2013-02-28 18:19:00,
2013-02-28 13:34:00,42.8,37.0,29.55,NE,56,2.0,3.0,79,0.00,,,0.08,weatherlink.com 1.10,2013-02-28 18:34:00,
2013-02-28 13:49:00,42.4,37.0,29.55,North,8,0.0,1.0,81,0.00,,,0.08,weatherlink.com 1.10,2013-02-28 18:49:00,
2013-02-28 14:04:00,42.4,36.0,29.55,West,278,0.0,2.0,78,0.00,,,0.08,weatherlink.com 1.10,2013-02-28 19:04:00,
2013-02-28 14:19:00,42.6,36.0,29.55,NE,43,0.0,2.0,78,0.00,,,0.08,weatherlink.com 1.10,2013-02-28 19:19:00,
2013-02-28 14:34:00,42.7,36.0,29.55,NE,43,0.0,0.0,76,0.00,,,0.08,weatherlink.com 1.10,2013-02-28 19:34:00,
2013-02-28 14:49:00,42.5,36.0,29.55,NE,43,0.0,0.0,77,0.00,,,0.08,weatherlink.com 1.10,2013-02-28 19:49:00,
2013-02-28 15:04:00,42.5,36.0,29.55,NE,43,0.0,0.0,78,0.00,,,0.08,weatherlink.com 1.10,2013-02-28 20:04:00,
2013-02-28 15:19:00,42.5,36.0,29.54,NE,43,0.0,0.0,77,0.00,,,0.08,weatherlink.com 1.10,2013-02-28 20:19:00,
2013-02-28 15:34:00,42.8,36.0,29.54,NE,43,0.0,0.0,77,0.00,,,0.08,weatherlink.com 1.10,2013-02-28 20:34:00,
2013-02-28 15:49:00,42.9,36.0,29.54,NE,43,0.0,0.0,77,0.00,,,0.08,weatherlink.com 1.10,2013-02-28 20:49:00,
2013-02-28 16:04:00,42.6,37.0,29.55,North,10,0.0,0.0,79,0.00,,,0.08,weatherlink.com 1.10,2013-02-28 21:04:00,
2013-02-28 16:19:00,42.2,36.0,29.55,North,10,0.0,0.0,80,0.00,,,0.08,weatherlink.com 1.10,2013-02-28 21:19:00,
2013-02-28 16:34:00,41.7,36.0,29.55,North,11,0.0,0.0,81,0.00,,,0.08,weatherlink.com 1.10,2013-02-28 21:34:00,
2013-02-28 16:49:00,41.3,36.0,29.55,North,10,0.0,0.0,82,0.00,,,0.08,weatherlink.com 1.10,2013-02-28 21:49:00,
2013-02-28 17:04:00,40.9,36.0,29.55,North,10,0.0,0.0,84,0.00,,,0.08,weatherlink.com 1.10,2013-02-28 22:04:00,
2013-02-28 17:19:00,40.2,37.0,29.56,North,10,0.0,0.0,87,0.00,,,0.08,weatherlink.com 1.10,2013-02-28 22:19:00,
2013-02-28 17:34:00,39.5,37.0,29.56,North,10,0.0,0.0,89,0.00,,,0.08,weatherlink.com 1.10,2013-02-28 22:34:00,
2013-02-28 17:49:00,39.4,36.0,29.56,North,356,1.0,3.0,88,0.00,,,0.08,weatherlink.com 1.10,2013-02-28 22:49:00,
2013-02-28 18:04:00,39.1,36.0,29.56,WNW,282,0.0,2.0,87,0.00,,,0.08,weatherlink.com 1.10,2013-02-28 23:04:00,
2013-02-28 18:19:00,39.0,36.0,29.57,West,281,0.0,0.0,87,0.00,,,0.08,weatherlink.com 1.10,2013-02-28 23:19:00,
2013-02-28 18:49:00,38.4,35.0,29.58,NW,319,1.0,3.0,88,0.00,,,0.08,weatherlink.com 1.10,2013-02-28 23:49:00,
2013-02-28 19:04:00,37.6,35.0,29.58,NW,306,1.0,3.0,89,0.00,,,0.08,weatherlink.com 1.10,2013-03-01 00:04:00,
2013-02-28 19:19:00,37.0,34.0,29.58,West,271,1.0,3.0,90,0.00,,,0.08,weatherlink.com 1.10,2013-03-01 00:19:00,
2013-02-28 19:34:00,36.5,34.0,29.58,WNW,285,0.0,4.0,91,0.00,,,0.08,weatherlink.com 1.10,2013-03-01 00:34:00,
2013-02-28 19:49:00,36.3,34.0,29.58,WNW,288,1.0,4.0,92,0.00,,,0.08,weatherlink.com 1.10,2013-03-01 00:49:00,
2013-02-28 20:04:00,36.1,34.0,29.58,WNW,282,0.0,3.0,92,0.00,,,0.08,weatherlink.com 1.10,2013-03-01 01:04:00,
2013-02-28 20:19:00,35.9,34.0,29.58,NNE,32,0.0,2.0,93,0.00,,,0.08,weatherlink.com 1.10,2013-03-01 01:19:00,
2013-02-28 20:34:00,35.7,34.0,29.58,NW,315,0.0,4.0,93,0.00,,,0.08,weatherlink.com 1.10,2013-03-01 01:34:00,
2013-02-28 20:49:00,35.5,34.0,29.59,WNW,282,0.0,2.0,94,0.00,,,0.08,weatherlink.com 1.10,2013-03-01 01:49:00,
2013-02-28 21:04:00,35.3,34.0,29.59,WNW,287,1.0,2.0,94,0.00,,,0.08,weatherlink.com 1.10,2013-03-01 02:04:00,
2013-02-28 21:19:00,35.3,34.0,29.59,WNW,284,1.0,2.0,94,0.00,,,0.08,weatherlink.com 1.10,2013-03-01 02:19:00,
2013-02-28 21:34:00,35.1,34.0,29.59,WNW,292,0.0,2.0,94,0.00,,,0.08,weatherlink.com 1.10,2013-03-01 02:34:00,
2013-02-28 21:49:00,35.0,34.0,29.59,WNW,300,1.0,3.0,94,0.00,,,0.08,weatherlink.com 1.10,2013-03-01 02:49:00,
2013-02-28 22:04:00,35.1,34.0,29.59,West,262,0.0,3.0,94,0.00,,,0.08,weatherlink.com 1.10,2013-03-01 03:04:00,
2013-02-28 22:19:00,35.1,34.0,29.59,WNW,288,1.0,4.0,94,0.00,,,0.08,weatherlink.com 1.10,2013-03-01 03:19:00,
2013-02-28 22:34:00,35.1,34.0,29.59,WNW,287,2.0,5.0,94,0.00,,,0.08,weatherlink.com 1.10,2013-03-01 03:34:00,
2013-02-28 22:49:00,35.1,34.0,29.59,WNW,288,2.0,4.0,94,0.00,,,0.08,weatherlink.com 1.10,2013-03-01 03:49:00,
2013-02-28 23:04:00,35.1,34.0,29.60,WNW,283,0.0,2.0,94,0.00,,,0.08,weatherlink.com 1.10,2013-03-01 04:04:00,
2013-02-28 23:19:00,34.9,34.0,29.60,WNW,290,0.0,3.0,95,0.00,,,0.08,weatherlink.com 1.10,2013-03-01 04:19:00,
2013-02-28 23:35:00,34.8,34.0,29.60,WNW,291,1.0,1.0,95,0.01,,,0.09,weatherlink.com 1.10,2013-03-01 04:35:00,
2013-02-28 23:49:00,34.6,34.0,29.60,West,281,0.0,1.0,96,0.01,,,0.09,weatherlink.com 1.10,2013-03-01 04:49:00,